Date,TemperatureHighF,TemperatureAvgF,TemperatureLowF,DewpointHighF,DewpointAvgF,DewpointLowF,HumidityHigh,HumidityAvg,HumidityLow,PressureMaxIn,PressureMinIn,WindSpeedMaxMPH,WindSpeedAvgMPH,GustSpeedMaxMPH,PrecipitationSumIn
2012-12-1,75.2,64.0,53.3,64.5,59.0,52.2,98,85,62,30.27,30.19,3,0,4,0.00
2012-12-2,81.0,66.6,56.0,65.5,60.4,55.3,99,83,48,30.30,30.19,3,0,8,0.00
2012-12-3,79.8,67.6,59.3,66.1,61.4,58.2,98,83,51,30.29,30.19,2,0,3,0.00
2012-12-4,78.4,64.7,54.5,63.4,57.3,53.7,99,79,45,30.31,30.19,2,0,6,0.00
2012-12-5,75.8,63.2,54.1,63.0,58.3,52.9,98,85,60,30.21,30.06,3,0,4,0.00
2012-12-6,78.6,66.7,58.3,66.6,61.9,57.2,99,86,61,30.07,29.94,2,0,6,0.00
2012-12-7,76.3,66.1,61.9,66.9,63.1,61.0,98,91,72,30.03,29.93,2,0,4,0.00
2012-12-8,76.6,66.1,59.4,69.4,64.0,58.8,99,93,76,30.07,29.98,2,0,4,0.00
2012-12-9,78.5,68.3,61.2,69.5,65.6,60.1,99,92,73,30.09,30.00,2,0,3,0.00
2012-12-10,79.0,67.7,56.3,72.7,65.7,55.7,99,94,77,30.02,29.82,4,1,6,0.26
2012-12-11,78.4,71.2,66.2,71.1,68.3,65.6,99,91,76,30.03,29.86,2,0,4,0.00
2012-12-12,77.5,68.6,61.8,71.6,67.1,61.2,99,95,80,30.09,29.97,2,0,3,0.06
2012-12-13,61.9,57.2,52.2,61.3,55.6,50.5,98,94,90,30.23,30.07,3,1,6,0.00
2012-12-14,63.4,55.5,50.7,58.8,53.5,49.9,99,93,84,30.26,30.13,3,1,5,0.00
2012-12-15,78.8,64.0,53.4,66.5,59.2,52.6,99,86,60,30.18,30.06,3,0,5,0.00
2012-12-16,79.5,65.2,56.0,67.1,60.4,55.2,99,86,58,30.07,29.94,2,0,6,0.00
2012-12-17,81.7,67.9,58.1,67.5,61.9,57.3,99,83,57,29.98,29.85,5,1,8,0.00
2012-12-19,64.0,58.3,55.3,53.8,52.1,49.6,90,80,64,30.08,30.06,0,0,0,0.00
2012-12-20,81.4,67.4,53.3,68.5,61.5,52.1,99,83,58,30.07,29.89,4,2,0,0.24
2012-12-21,64.0,50.9,38.8,60.4,36.7,25.5,88,60,27,30.22,29.94,5,2,0,0.00
2012-12-22,61.5,44.4,31.9,33.0,27.0,23.1,89,54,24,30.31,30.19,1,0,0,0.00
2012-12-23,66.7,47.3,31.1,43.1,34.0,27.3,97,67,24,30.28,30.15,1,0,0,0.00
2012-12-24,68.1,56.6,45.7,54.1,48.4,42.2,93,75,53,30.15,29.99,3,0,0,0.00
2012-12-25,74.5,62.3,52.4,62.1,57.0,50.7,97,84,61,30.02,29.89,3,0,8,0.00
2012-12-26,73.8,62.6,46.3,68.9,57.5,38.6,95,84,68,30.00,29.76,8,3,24,0.27
2012-12-27,61.2,43.5,34.1,42.3,37.0,31.8,94,79,49,30.14,30.00,2,0,4,0.00
2012-12-28,68.1,52.9,35.9,60.6,46.0,34.6,98,80,49,30.12,29.91,2,0,6,0.42
2012-12-29,71.7,64.2,46.7,70.6,59.4,41.0,98,85,55,30.18,29.83,5,2,10,0.16
2012-12-30,54.2,44.7,35.6,41.2,36.4,31.4,89,74,51,30.39,30.18,3,1,5,0.00
2012-12-31,72.7,55.2,40.0,58.0,49.1,38.4,96,82,57,30.38,30.20,3,0,6,0.00